createdAt,value
2023-03-05T00:00:23.023Z,102149.06
2023-03-05T00:02:50.166Z,102145.50
2023-03-05T00:05:17.326Z,102136.97
2023-03-05T00:07:44.472Z,102137.09
2023-03-05T00:10:21.537Z,102136.25
2023-03-05T00:12:48.609Z,102129.25
2023-03-05T00:15:15.828Z,102135.31
2023-03-05T00:17:42.872Z,102129.34
2023-03-05T00:20:14.910Z,102121.69
2023-03-05T00:22:41.934Z,102125.25
2023-03-05T00:25:09.503Z,102127.88
2023-03-05T00:27:36.496Z,102119.06
2023-03-05T00:30:04.360Z,102121.69
2023-03-05T00:32:31.555Z,102122.72
2023-03-05T00:34:58.707Z,102109.84
2023-03-05T00:37:25.887Z,102116.13
2023-03-05T00:39:52.952Z,102109.31
2023-03-05T00:42:20.006Z,102111.94
2023-03-05T00:44:47.074Z,102114.44
2023-03-05T00:47:14.250Z,102105.72
2023-03-05T00:49:41.306Z,102101.44
2023-03-05T00:52:08.456Z,102100.69
2023-03-05T00:54:35.517Z,102101.53
2023-03-05T00:57:02.732Z,102099.78
2023-03-05T00:59:33.443Z,102093.78
2023-03-05T01:02:00.507Z,102093.78
2023-03-05T01:04:27.507Z,102087.59
2023-03-05T01:06:54.573Z,102092.00
2023-03-05T01:09:22.301Z,102084.38
2023-03-05T01:11:49.420Z,102085.31
2023-03-05T01:14:16.598Z,102082.06
2023-03-05T01:16:43.679Z,102083.84
2023-03-05T01:19:10.683Z,102081.22
2023-03-05T01:21:37.732Z,102077.00
2023-03-05T01:24:05.102Z,102072.69
2023-03-05T01:26:32.276Z,102064.75
2023-03-05T01:28:59.395Z,102070.00
2023-03-05T01:31:26.446Z,102064.97
2023-03-05T01:33:54.025Z,102061.50
2023-03-05T01:36:21.304Z,102055.53
2023-03-05T01:38:48.393Z,102049.25
2023-03-05T01:41:16.486Z,102051.22
2023-03-05T01:43:44.454Z,102043.16
2023-03-05T01:46:22.214Z,102044.34
2023-03-05T01:48:52.323Z,102036.66
2023-03-05T01:51:20.477Z,102027.25
2023-03-05T01:53:47.988Z,102027.25
2023-03-05T01:56:15.485Z,102031.50
2023-03-05T01:58:42.726Z,102016.88
2023-03-05T02:01:10.084Z,102026.41
2023-03-05T02:03:37.510Z,102012.38
2023-03-05T02:06:04.695Z,102024.50
2023-03-05T02:08:31.972Z,102010.56
2023-03-05T02:11:00.645Z,102013.41
2023-03-05T02:13:29.876Z,102005.53
2023-03-05T02:15:58.727Z,102000.41
2023-03-05T02:18:25.871Z,102000.31
2023-03-05T02:20:55.108Z,102002.19
2023-03-05T02:23:23.310Z,101998.63
2023-03-05T02:25:50.363Z,101991.72
2023-03-05T02:28:17.712Z,101992.53
2023-03-05T02:30:44.758Z,101988.16
2023-03-05T02:33:13.559Z,101993.59
2023-03-05T02:35:40.628Z,101983.31
2023-03-05T02:38:07.686Z,101985.13
2023-03-05T02:40:34.854Z,101978.94
2023-03-05T02:43:01.885Z,101970.88
2023-03-05T02:45:28.972Z,101976.97
2023-03-05T02:47:56.194Z,101965.66
2023-03-05T02:50:23.349Z,101970.97
2023-03-05T02:52:50.445Z,101963.22
2023-03-05T02:55:17.680Z,101954.53
2023-03-05T02:57:44.699Z,101957.38
2023-03-05T03:00:12.394Z,101955.81
2023-03-05T03:02:39.472Z,101948.97
2023-03-05T03:05:07.081Z,101943.22
2023-03-05T03:07:36.340Z,101940.59
2023-03-05T03:10:04.194Z,101937.25
2023-03-05T03:12:31.379Z,101932.84
2023-03-05T03:14:58.375Z,101933.59
2023-03-05T03:17:25.551Z,101930.97
2023-03-05T03:19:52.784Z,101929.28
2023-03-05T03:22:19.810Z,101924.06
2023-03-05T03:24:46.997Z,101910.97
2023-03-05T03:27:14.049Z,101910.97
2023-03-05T03:29:41.049Z,101903.34
2023-03-05T03:32:08.954Z,101899.88
2023-03-05T03:34:35.993Z,101905.03
2023-03-05T03:37:03.016Z,101892.72
2023-03-05T03:39:30.120Z,101890.88
2023-03-05T03:41:57.230Z,101901.44
2023-03-05T03:44:24.403Z,101898.81
2023-03-05T03:46:51.879Z,101888.66
2023-03-05T03:49:21.252Z,101880.19
2023-03-05T03:51:48.749Z,101890.56
2023-03-05T03:54:16.441Z,101876.50
2023-03-05T03:56:43.450Z,101874.63
2023-03-05T03:59:10.555Z,101872.84
2023-03-05T04:01:38.043Z,101871.78
2023-03-05T04:04:05.432Z,101868.47
2023-03-05T04:06:33.429Z,101872.13
2023-03-05T04:09:00.641Z,101875.19
2023-03-05T04:11:27.578Z,101863.97
2023-03-05T04:13:54.642Z,101869.72
2023-03-05T04:16:21.529Z,101861.06
2023-03-05T04:18:48.398Z,101857.59
2023-03-05T04:21:15.399Z,101851.31
2023-03-05T04:23:42.257Z,101848.69
2023-03-05T04:26:09.238Z,101849.63
2023-03-05T04:28:36.482Z,101847.75
2023-03-05T04:31:04.229Z,101849.28
2023-03-05T04:33:31.248Z,101848.34
2023-03-05T04:35:58.200Z,101842.50
2023-03-05T04:38:25.165Z,101842.75
2023-03-05T04:40:52.078Z,101833.41
2023-03-05T04:43:18.968Z,101834.03
2023-03-05T04:45:45.892Z,101829.44
2023-03-05T04:48:14.970Z,101846.81
2023-03-05T04:50:41.972Z,101832.78
2023-03-05T04:53:08.888Z,101837.78
2023-03-05T04:55:35.796Z,101833.50
2023-03-05T04:58:03.052Z,101829.09
2023-03-05T05:00:29.944Z,101826.59
2023-03-05T05:02:56.900Z,101821.34
2023-03-05T05:05:25.484Z,101819.56
2023-03-05T05:07:55.626Z,101814.97
2023-03-05T05:10:22.591Z,101803.78
2023-03-05T05:12:49.410Z,101799.56
2023-03-05T05:15:16.339Z,101797.06
2023-03-05T05:17:43.211Z,101800.53
2023-03-05T05:20:11.744Z,101792.69
2023-03-05T05:22:38.870Z,101789.44
2023-03-05T05:25:05.982Z,101786.41
2023-03-05T05:27:33.236Z,101789.13
2023-03-05T05:30:00.917Z,101776.78
2023-03-05T05:32:27.809Z,101777.50
2023-03-05T05:34:56.347Z,101782.97
2023-03-05T05:37:23.513Z,101781.06
2023-03-05T05:39:51.347Z,101778.44
2023-03-05T05:42:18.730Z,101776.47
2023-03-05T05:44:45.642Z,101787.56
2023-03-05T05:47:12.615Z,101784.94
2023-03-05T05:49:39.900Z,101780.63
2023-03-05T05:52:07.149Z,101769.47
2023-03-05T05:54:34.261Z,101766.19
2023-03-05T05:57:01.168Z,101757.50
2023-03-05T05:59:28.132Z,101758.56
2023-03-05T06:01:55.101Z,101764.84
2023-03-05T06:04:22.159Z,101756.28
2023-03-05T06:06:49.043Z,101759.94
2023-03-05T06:09:15.876Z,101759.09
2023-03-05T06:11:42.873Z,101759.09
2023-03-05T06:14:11.104Z,101760.78
2023-03-05T06:16:38.078Z,101766.09
2023-03-05T06:19:05.437Z,101761.72
2023-03-05T06:21:32.693Z,101765.28
2023-03-05T06:23:59.725Z,101765.16
2023-03-05T06:26:26.589Z,101760.06
2023-03-05T06:28:53.834Z,101754.94
2023-03-05T06:31:23.255Z,101754.19
2023-03-05T06:33:50.641Z,101746.34
2023-03-05T06:36:20.019Z,101749.88
2023-03-05T06:38:48.449Z,101753.47
2023-03-05T06:41:17.525Z,101750.03
2023-03-05T06:43:45.267Z,101747.50
2023-03-05T06:46:12.483Z,101749.28
2023-03-05T06:48:39.849Z,101741.53
2023-03-05T06:51:12.752Z,101751.19
2023-03-05T06:53:39.580Z,101744.28
2023-03-05T06:56:06.499Z,101741.44
2023-03-05T06:58:33.347Z,101744.03
2023-03-05T07:01:00.388Z,101743.22
2023-03-05T07:03:27.283Z,101745.94
2023-03-05T07:05:54.144Z,101744.13
2023-03-05T07:08:23.108Z,101752.97
2023-03-05T07:10:49.986Z,101751.06
2023-03-05T07:13:16.976Z,101744.88
2023-03-05T07:15:44.035Z,101737.03
2023-03-05T07:18:10.921Z,101746.56
2023-03-05T07:20:37.898Z,101747.41
2023-03-05T07:23:04.930Z,101742.88
2023-03-05T07:25:32.340Z,101740.91
2023-03-05T07:27:59.278Z,101738.41
2023-03-05T07:30:26.144Z,101735.03
2023-03-05T07:32:53.045Z,101736.09
2023-03-05T07:35:20.005Z,101727.63
2023-03-05T07:37:47.121Z,101735.59
2023-03-05T07:40:14.155Z,101730.34
2023-03-05T07:42:40.985Z,101726.06
2023-03-05T07:45:08.409Z,101725.31
2023-03-05T07:47:35.940Z,101731.50
2023-03-05T07:50:04.013Z,101727.22
2023-03-05T07:52:30.984Z,101738.53
2023-03-05T07:54:57.831Z,101729.63
2023-03-05T07:57:24.588Z,101736.44
2023-03-05T07:59:51.342Z,101732.03
2023-03-05T08:02:19.989Z,101728.34
2023-03-05T08:04:46.739Z,101730.25
2023-03-05T08:07:15.294Z,101730.97
2023-03-05T08:09:46.960Z,101724.69
2023-03-05T08:12:13.743Z,101722.69
2023-03-05T08:14:40.577Z,101719.13
2023-03-05T08:17:08.344Z,101715.47
2023-03-05T08:19:35.073Z,101721.63
2023-03-05T08:22:02.010Z,101713.56
2023-03-05T08:24:29.953Z,101713.34
2023-03-05T08:26:59.941Z,101714.94
2023-03-05T08:29:26.718Z,101717.31
2023-03-05T08:31:53.819Z,101717.94
2023-03-05T08:34:21.332Z,101713.44
2023-03-05T08:36:48.298Z,101709.25
2023-03-05T08:39:15.476Z,101712.69
2023-03-05T08:41:42.242Z,101707.34
2023-03-05T08:44:09.315Z,101708.94
2023-03-05T08:46:37.161Z,101707.66
2023-03-05T08:49:03.975Z,101699.69
2023-03-05T08:51:30.758Z,101702.81
2023-03-05T08:53:59.069Z,101699.13
2023-03-05T08:56:27.847Z,101699.00
2023-03-05T08:58:54.648Z,101692.84
2023-03-05T09:01:22.841Z,101694.41
2023-03-05T09:03:49.966Z,101689.03
2023-03-05T09:06:16.724Z,101680.03
2023-03-05T09:08:43.487Z,101688.50
2023-03-05T09:11:11.960Z,101683.88
2023-03-05T09:13:38.771Z,101674.56
2023-03-05T09:16:07.244Z,101666.44
2023-03-05T09:18:36.942Z,101660.38
2023-03-05T09:21:07.778Z,101669.44
2023-03-05T09:23:34.951Z,101668.28
2023-03-05T09:26:01.872Z,101663.75
2023-03-05T09:28:28.677Z,101663.53
2023-03-05T09:30:55.443Z,101658.06
2023-03-05T09:33:22.172Z,101654.38
2023-03-05T09:35:49.028Z,101661.53
2023-03-05T09:38:24.340Z,101653.31
2023-03-05T09:40:51.602Z,101647.63
2023-03-05T09:43:21.498Z,101643.94
2023-03-05T09:45:59.117Z,101630.84
2023-03-05T09:48:38.639Z,101641.94
2023-03-05T09:51:05.492Z,101637.19
2023-03-05T09:53:35.346Z,101646.38
2023-03-05T09:56:04.996Z,101644.91
2023-03-05T09:58:34.892Z,101630.19
2023-03-05T10:01:04.061Z,101638.97
2023-03-05T10:03:36.126Z,101635.88
2023-03-05T10:06:06.012Z,101635.13
2023-03-05T10:08:42.289Z,101617.53
2023-03-05T10:11:20.623Z,101613.00
2023-03-05T10:13:47.641Z,101618.63
2023-03-05T10:16:17.598Z,101620.03
2023-03-05T10:18:47.634Z,101607.69
2023-03-05T10:21:17.082Z,101605.66
2023-03-05T10:23:49.836Z,101600.88
2023-03-05T10:26:16.958Z,101598.75
2023-03-05T10:28:46.716Z,101596.13
2023-03-05T10:31:16.534Z,101590.78
2023-03-05T10:33:46.452Z,101590.44
2023-03-05T10:36:16.463Z,101588.28
2023-03-05T10:38:46.878Z,101584.81
2023-03-05T10:41:14.972Z,101586.03
2023-03-05T10:43:43.364Z,101580.88
2023-03-05T10:46:15.420Z,101574.81
2023-03-05T10:48:45.226Z,101573.75
2023-03-05T10:51:15.725Z,101574.81
2023-03-05T10:53:45.644Z,101564.94
2023-03-05T10:56:12.643Z,101562.78
2023-03-05T10:58:39.744Z,101555.03
2023-03-05T11:01:07.008Z,101554.09
2023-03-05T11:03:36.827Z,101553.25
2023-03-05T11:06:03.679Z,101558.84
2023-03-05T11:08:32.691Z,101563.72
2023-03-05T11:11:04.105Z,101547.75
2023-03-05T11:13:31.088Z,101544.88
2023-03-05T11:15:59.415Z,101542.84
2023-03-05T11:18:26.571Z,101540.47
2023-03-05T11:21:06.911Z,101533.56
2023-03-05T11:23:34.591Z,101526.50
2023-03-05T11:26:04.530Z,101518.28
2023-03-05T11:28:37.869Z,101512.34
2023-03-05T11:31:08.032Z,101524.34
2023-03-05T11:33:36.124Z,101524.44
2023-03-05T11:36:05.981Z,101512.94
2023-03-05T11:38:34.130Z,101515.19
2023-03-05T11:41:01.887Z,101508.88
2023-03-05T11:43:31.142Z,101501.75
2023-03-05T11:46:01.821Z,101503.53
2023-03-05T11:48:33.404Z,101500.72
2023-03-05T11:51:01.799Z,101496.91
2023-03-05T11:53:30.053Z,101493.44
2023-03-05T11:56:00.191Z,101491.38
2023-03-05T11:58:32.838Z,101477.97
2023-03-05T12:01:00.693Z,101483.53
2023-03-05T12:03:31.925Z,101485.31
2023-03-05T12:06:02.404Z,101487.09
2023-03-05T12:08:35.553Z,101472.44
2023-03-05T12:11:06.601Z,101468.16
2023-03-05T12:13:34.883Z,101467.84
2023-03-05T12:16:04.783Z,101464.97
2023-03-05T12:18:37.676Z,101459.84
2023-03-05T12:21:07.568Z,101453.06
2023-03-05T12:23:37.487Z,101443.66
2023-03-05T12:26:04.606Z,101439.84
2023-03-05T12:28:37.551Z,101437.00
2023-03-05T12:31:06.032Z,101422.84
2023-03-05T12:33:36.846Z,101413.94
2023-03-05T12:36:06.713Z,101417.88
2023-03-05T12:38:34.646Z,101410.59
2023-03-05T12:41:04.588Z,101401.91
2023-03-05T12:43:32.793Z,101394.06
2023-03-05T12:46:02.698Z,101388.34
2023-03-05T12:48:32.455Z,101385.25
2023-03-05T12:50:59.667Z,101384.25
2023-03-05T12:53:26.552Z,101369.75
2023-03-05T12:55:57.604Z,101368.78
2023-03-05T12:58:26.389Z,101362.22
2023-03-05T13:01:00.372Z,101350.06
2023-03-05T13:03:30.920Z,101341.72
2023-03-05T13:05:58.815Z,101337.88
2023-03-05T13:08:29.809Z,101334.72
2023-03-05T13:10:59.562Z,101324.56
2023-03-05T13:13:27.716Z,101330.38
2023-03-05T13:15:54.747Z,101316.88
2023-03-05T13:18:28.692Z,101310.97
2023-03-05T13:20:58.800Z,101305.84
2023-03-05T13:23:26.857Z,101310.50
2023-03-05T13:25:56.808Z,101303.47
2023-03-05T13:28:27.022Z,101301.25
2023-03-05T13:30:55.882Z,101294.06
2023-03-05T13:33:25.332Z,101290.06
2023-03-05T13:35:53.936Z,101283.91
2023-03-05T13:38:26.487Z,101266.78
2023-03-05T13:40:58.724Z,101262.75
2023-03-05T13:43:25.586Z,101270.59
2023-03-05T13:45:55.204Z,101253.47
2023-03-05T13:48:25.588Z,101253.47
2023-03-05T13:50:55.875Z,101250.97
2023-03-05T13:53:25.748Z,101250.13
2023-03-05T13:55:54.870Z,101239.28
2023-03-05T13:58:27.376Z,101239.16
2023-03-05T14:01:03.031Z,101232.72
2023-03-05T14:03:30.561Z,101223.50
2023-03-05T14:05:57.498Z,101223.69
2023-03-05T14:08:28.041Z,101218.06
2023-03-05T14:10:57.264Z,101212.25
2023-03-05T14:13:25.470Z,101217.16
2023-03-05T14:15:55.492Z,101214.09
2023-03-05T14:18:24.455Z,101211.47
2023-03-05T14:20:54.622Z,101209.69
2023-03-05T14:23:26.791Z,101193.28
2023-03-05T14:26:11.526Z,101191.50
2023-03-05T14:28:38.622Z,101184.47
2023-03-05T14:31:15.655Z,101179.47
2023-03-05T14:33:42.628Z,101184.00
2023-03-05T14:36:11.201Z,101176.28
2023-03-05T14:38:41.730Z,101176.28
2023-03-05T14:41:12.162Z,101166.25
2023-03-05T14:43:39.113Z,101155.38
2023-03-05T14:46:06.176Z,101153.31
2023-03-05T14:48:33.573Z,101148.06
2023-03-05T14:51:01.600Z,101142.81
2023-03-05T14:53:32.093Z,101138.75
2023-03-05T14:56:00.442Z,101139.41
2023-03-05T14:58:34.743Z,101128.13
2023-03-05T15:01:04.125Z,101121.91
2023-03-05T15:03:33.334Z,101123.84
2023-03-05T15:06:00.966Z,101122.44
2023-03-05T15:08:30.725Z,101118.00
2023-03-05T15:10:58.262Z,101114.94
2023-03-05T15:13:25.195Z,101113.88
2023-03-05T15:15:53.050Z,101103.28
2023-03-05T15:18:28.709Z,101103.66
2023-03-05T15:20:57.371Z,101105.56
2023-03-05T15:23:24.746Z,101102.25
2023-03-05T15:25:51.744Z,101108.72
2023-03-05T15:28:29.074Z,101108.72
2023-03-05T15:30:58.145Z,101102.78
2023-03-05T15:33:27.859Z,101094.22
2023-03-05T15:35:55.135Z,101099.00
2023-03-05T15:38:29.479Z,101091.88
2023-03-05T15:40:57.001Z,101078.50
2023-03-05T15:43:24.476Z,101075.03
2023-03-05T15:45:51.583Z,101068.44
2023-03-05T15:48:23.530Z,101064.34
2023-03-05T15:50:53.397Z,101063.38
2023-03-05T15:53:22.034Z,101064.34
2023-03-05T15:55:49.038Z,101064.19
2023-03-05T15:58:18.988Z,101065.31
2023-03-05T16:00:47.991Z,101054.00
2023-03-05T16:03:15.277Z,101051.06
2023-03-05T16:05:42.725Z,101049.41
2023-03-05T16:08:09.850Z,101041.41
2023-03-05T16:10:39.010Z,101042.25
2023-03-05T16:13:09.830Z,101039.91
2023-03-05T16:15:39.184Z,101035.34
2023-03-05T16:18:08.653Z,101037.00
2023-03-05T16:20:36.747Z,101025.97
2023-03-05T16:23:04.796Z,101028.97
2023-03-05T16:25:31.871Z,101025.38
2023-03-05T16:27:58.870Z,101023.47
2023-03-05T16:30:26.161Z,101016.56
2023-03-05T16:32:53.811Z,101013.00
2023-03-05T16:35:20.951Z,101025.38
2023-03-05T16:37:48.059Z,101018.22
2023-03-05T16:40:15.226Z,101018.34
2023-03-05T16:42:42.624Z,101017.78
2023-03-05T16:45:10.405Z,101015.16
2023-03-05T16:47:37.641Z,100996.84
2023-03-05T16:50:05.753Z,101004.81
2023-03-05T16:52:32.768Z,100992.44
2023-03-05T16:54:59.821Z,100990.63
2023-03-05T16:57:26.785Z,100981.00
2023-03-05T16:59:54.919Z,100990.47
2023-03-05T17:02:22.180Z,100981.66
2023-03-05T17:04:50.789Z,100975.47
2023-03-05T17:07:18.663Z,100982.50
2023-03-05T17:09:48.363Z,100990.63
2023-03-05T17:12:16.493Z,100977.09
2023-03-05T17:14:43.957Z,100981.50
2023-03-05T17:17:11.125Z,100978.19
2023-03-05T17:19:38.336Z,100980.97
2023-03-05T17:22:06.602Z,100981.91
2023-03-05T17:24:34.278Z,100974.31
2023-03-05T17:27:01.534Z,100971.00
2023-03-05T17:29:29.124Z,100972.06
2023-03-05T17:31:56.161Z,100967.00
2023-03-05T17:34:35.719Z,100965.56
2023-03-05T17:37:03.719Z,100966.56
2023-03-05T17:39:30.743Z,100965.84
2023-03-05T17:41:57.833Z,100960.72
2023-03-05T17:44:24.956Z,100955.38
2023-03-05T17:46:51.996Z,100963.09
2023-03-05T17:49:19.018Z,100956.09
2023-03-05T17:51:46.160Z,100943.00
2023-03-05T17:54:12.986Z,100942.00
2023-03-05T17:56:40.148Z,100955.25
2023-03-05T17:59:07.362Z,100947.63
2023-03-05T18:01:35.967Z,100940.50
2023-03-05T18:04:04.087Z,100943.78
2023-03-05T18:06:32.867Z,100943.66
2023-03-05T18:09:00.946Z,100953.19
2023-03-05T18:11:30.676Z,100941.59
2023-03-05T18:13:59.340Z,100940.53
2023-03-05T18:16:27.435Z,100934.84
2023-03-05T18:18:55.957Z,100923.66
2023-03-05T18:21:25.181Z,100922.84
2023-03-05T18:23:52.963Z,100926.44
2023-03-05T18:26:20.039Z,100920.22
2023-03-05T18:28:47.125Z,100921.75
2023-03-05T18:31:14.079Z,100921.63
2023-03-05T18:33:42.420Z,100914.72
2023-03-05T18:36:13.401Z,100920.94
2023-03-05T18:38:40.274Z,100905.22
2023-03-05T18:41:08.420Z,100911.28
2023-03-05T18:43:35.994Z,100915.69
2023-03-05T18:46:05.210Z,100910.56
2023-03-05T18:48:35.253Z,100909.75
2023-03-05T18:51:02.404Z,100908.13
2023-03-05T18:53:29.220Z,100911.41
2023-03-05T18:55:56.218Z,100907.41
2023-03-05T18:58:31.350Z,100916.34
2023-03-05T19:00:58.793Z,100904.91
2023-03-05T19:03:25.899Z,100906.56
2023-03-05T19:05:53.384Z,100902.03
2023-03-05T19:08:25.425Z,100901.22
2023-03-05T19:10:52.190Z,100897.88
2023-03-05T19:13:23.666Z,100894.44
2023-03-05T19:15:50.508Z,100885.63
2023-03-05T19:18:30.477Z,100876.81
2023-03-05T19:20:57.656Z,100873.91
2023-03-05T19:23:25.526Z,100870.63
2023-03-05T19:25:52.407Z,100875.16
2023-03-05T19:28:27.422Z,100873.47
2023-03-05T19:30:54.512Z,100875.16
2023-03-05T19:33:23.485Z,100870.03
2023-03-05T19:35:51.041Z,100862.06
2023-03-05T19:38:20.756Z,100865.63
2023-03-05T19:40:47.993Z,100872.66
2023-03-05T19:43:14.924Z,100861.22
2023-03-05T19:45:41.709Z,100866.47
2023-03-05T19:48:08.815Z,100864.66
2023-03-05T19:50:35.734Z,100860.25
2023-03-05T19:53:02.662Z,100859.44
2023-03-05T19:55:29.572Z,100863.84
2023-03-05T19:57:56.523Z,100855.16
2023-03-05T20:00:26.505Z,100851.69
2023-03-05T20:02:53.983Z,100847.16
2023-03-05T20:05:23.336Z,100846.34
2023-03-05T20:07:50.206Z,100848.00
2023-03-05T20:10:17.887Z,100847.16
2023-03-05T20:12:48.162Z,100842.88
2023-03-05T20:15:15.507Z,100840.28
2023-03-05T20:17:46.307Z,100837.09
2023-03-05T20:20:16.206Z,100833.66
2023-03-05T20:22:45.069Z,100836.28
2023-03-05T20:25:14.179Z,100839.59
2023-03-05T20:27:40.976Z,100830.75
2023-03-05T20:30:09.880Z,100836.81
2023-03-05T20:32:39.155Z,100833.53
2023-03-05T20:35:06.210Z,100826.50
2023-03-05T20:37:40.257Z,100827.19
2023-03-05T20:40:07.888Z,100820.44
2023-03-05T20:42:34.851Z,100821.25
2023-03-05T20:45:01.742Z,100820.56
2023-03-05T20:47:40.706Z,100825.78
2023-03-05T20:50:10.148Z,100831.88
2023-03-05T20:52:37.832Z,100831.75
2023-03-05T20:55:05.654Z,100827.31
2023-03-05T20:57:32.460Z,100826.50
2023-03-05T21:00:00.558Z,100824.56
2023-03-05T21:02:27.850Z,100825.25
2023-03-05T21:04:54.755Z,100828.72
2023-03-05T21:07:21.645Z,100820.69
2023-03-05T21:09:48.602Z,100813.84
2023-03-05T21:12:15.425Z,100809.56
2023-03-05T21:14:42.475Z,100814.91
2023-03-05T21:17:09.777Z,100812.28
2023-03-05T21:19:37.733Z,100805.41
2023-03-05T21:22:04.599Z,100804.72
2023-03-05T21:24:42.873Z,100803.19
2023-03-05T21:27:09.909Z,100805.13
2023-03-05T21:29:36.924Z,100797.13
2023-03-05T21:32:04.765Z,100804.16
2023-03-05T21:34:32.218Z,100802.63
2023-03-05T21:36:59.168Z,100801.81
2023-03-05T21:39:25.943Z,100808.44
2023-03-05T21:41:52.854Z,100796.28
2023-03-05T21:44:19.904Z,100791.06
2023-03-05T21:46:46.728Z,100791.88
2023-03-05T21:49:13.568Z,100790.09
2023-03-05T21:51:51.429Z,100788.44
2023-03-05T21:54:18.308Z,100783.34
2023-03-05T21:56:48.481Z,100783.34
2023-03-05T21:59:17.892Z,100778.94
2023-03-05T22:01:46.990Z,100775.63
2023-03-05T22:04:20.398Z,100772.19
2023-03-05T22:06:53.582Z,100770.50
2023-03-05T22:09:23.285Z,100772.59
2023-03-05T22:11:50.482Z,100765.25
2023-03-05T22:14:18.118Z,100758.25
2023-03-05T22:16:46.261Z,100751.34
2023-03-05T22:19:14.525Z,100745.97
2023-03-05T22:21:43.509Z,100752.72
2023-03-05T22:24:11.403Z,100745.56
2023-03-05T22:26:39.829Z,100749.97
2023-03-05T22:29:08.924Z,100747.50
2023-03-05T22:31:35.784Z,100743.09
2023-03-05T22:34:03.418Z,100736.22
2023-03-05T22:36:31.883Z,100732.78
2023-03-05T22:38:58.789Z,100727.78
2023-03-05T22:41:25.644Z,100719.94
2023-03-05T22:43:52.605Z,100718.28
2023-03-05T22:46:20.777Z,100716.63
2023-03-05T22:48:48.196Z,100715.09
2023-03-05T22:51:16.257Z,100717.19
2023-03-05T22:53:43.251Z,100706.97
2023-03-05T22:56:12.247Z,100713.31
2023-03-05T22:58:39.121Z,100704.75
2023-03-05T23:01:09.107Z,100710.56
2023-03-05T23:03:36.094Z,100701.16
2023-03-05T23:06:02.991Z,100704.75
2023-03-05T23:08:29.844Z,100710.13
2023-03-05T23:11:00.481Z,100696.63
2023-03-05T23:13:33.860Z,100704.31
2023-03-05T23:16:00.739Z,100694.00
2023-03-05T23:18:27.598Z,100695.63
2023-03-05T23:20:54.704Z,100698.41
2023-03-05T23:23:21.631Z,100693.19
2023-03-05T23:25:50.546Z,100695.09
2023-03-05T23:28:17.845Z,100690.13
2023-03-05T23:30:44.729Z,100691.91
2023-03-05T23:33:14.791Z,100689.44
2023-03-05T23:35:48.902Z,100688.03
2023-03-05T23:38:15.969Z,100687.50
2023-03-05T23:40:44.400Z,100684.88
2023-03-05T23:43:11.822Z,100692.56
2023-03-05T23:45:40.648Z,100684.72
2023-03-05T23:48:07.709Z,100681.56
2023-03-05T23:50:35.981Z,100678.94
2023-03-05T23:53:03.502Z,100681.69
2023-03-05T23:55:33.008Z,100678.25
2023-03-05T23:58:00.272Z,100675.91
